createdAt,value
2023-04-16T00:00:40.728Z,97196.28
2023-04-16T00:04:43.488Z,97197.84
2023-04-16T00:08:44.873Z,97195.09
2023-04-16T00:12:46.242Z,97183.78
2023-04-16T00:16:47.617Z,97200.94
2023-04-16T00:20:50.519Z,97195.75
2023-04-16T00:24:51.846Z,97197.91
2023-04-16T00:28:53.168Z,97208.09
2023-04-16T00:32:54.543Z,97200.16
2023-04-16T00:36:57.335Z,97191.88
2023-04-16T00:40:58.967Z,97193.25
2023-04-16T00:45:00.296Z,97193.69
2023-04-16T00:49:02.615Z,97184.44
2023-04-16T00:53:05.372Z,97189.94
2023-04-16T00:57:06.711Z,97195.97
2023-04-16T01:01:08.164Z,97193.81
2023-04-16T01:05:09.593Z,97194.44
2023-04-16T01:09:12.300Z,97197.66
2023-04-16T01:13:13.651Z,97194.66
2023-04-16T01:17:15.053Z,97199.84
2023-04-16T01:21:17.780Z,97195.72
2023-04-16T01:25:19.092Z,97205.22
2023-04-16T01:29:20.441Z,97205.63
2023-04-16T01:33:21.774Z,97206.44
2023-04-16T01:37:24.511Z,97211.16
2023-04-16T01:41:26.463Z,97210.66
2023-04-16T01:45:27.866Z,97211.19
2023-04-16T01:49:29.378Z,97221.25
2023-04-16T01:53:32.104Z,97221.88
2023-04-16T01:57:33.438Z,97217.16
2023-04-16T02:01:34.805Z,97215.28
2023-04-16T02:05:36.109Z,97220.66
2023-04-16T02:09:39.338Z,97215.13
2023-04-16T02:13:40.657Z,97225.47
2023-04-16T02:17:42.078Z,97229.44
2023-04-16T02:21:43.443Z,97230.91
2023-04-16T02:25:46.801Z,97227.66
2023-04-16T02:29:48.142Z,97235.84
2023-04-16T02:33:49.503Z,97227.78
2023-04-16T02:37:50.837Z,97237.75
2023-04-16T02:41:53.562Z,97238.59
2023-04-16T02:45:55.018Z,97250.19
2023-04-16T02:49:56.413Z,97242.91
2023-04-16T02:53:57.732Z,97244.41
2023-04-16T02:58:00.438Z,97247.66
2023-04-16T03:02:01.786Z,97253.09
2023-04-16T03:06:03.512Z,97246.22
2023-04-16T03:10:05.403Z,97246.84
2023-04-16T03:14:08.158Z,97253.09
2023-04-16T03:18:09.490Z,97253.00
2023-04-16T03:22:10.830Z,97267.47
2023-04-16T03:26:12.201Z,97259.50
2023-04-16T03:30:15.006Z,97263.84
2023-04-16T03:34:16.501Z,97260.13
2023-04-16T03:38:17.912Z,97261.28
2023-04-16T03:42:19.282Z,97262.78
2023-04-16T03:46:22.036Z,97272.97
2023-04-16T03:50:23.421Z,97272.06
2023-04-16T03:54:24.794Z,97278.38
2023-04-16T03:58:26.190Z,97279.84
2023-04-16T04:02:29.060Z,97283.38
2023-04-16T04:06:30.555Z,97287.81
2023-04-16T04:10:32.057Z,97290.78
2023-04-16T04:14:33.489Z,97289.03
2023-04-16T04:18:36.247Z,97297.09
2023-04-16T04:22:37.600Z,97306.47
2023-04-16T04:26:39.003Z,97308.16
2023-04-16T04:30:40.431Z,97307.06
2023-04-16T04:34:43.173Z,97312.19
2023-04-16T04:38:44.582Z,97315.13
2023-04-16T04:42:45.983Z,97325.38
2023-04-16T04:46:47.463Z,97322.81
2023-04-16T04:50:50.218Z,97324.69
2023-04-16T04:54:52.618Z,97329.31
2023-04-16T04:58:54.571Z,97329.84
2023-04-16T05:02:56.003Z,97330.13
2023-04-16T05:06:58.833Z,97344.66
2023-04-16T05:11:00.248Z,97342.97
2023-04-16T05:15:01.634Z,97350.03
2023-04-16T05:19:03.133Z,97348.31
2023-04-16T05:23:05.913Z,97357.09
2023-04-16T05:27:07.325Z,97358.09
2023-04-16T05:31:08.771Z,97355.88
2023-04-16T05:35:10.296Z,97361.84
2023-04-16T05:39:13.038Z,97367.78
2023-04-16T05:43:14.398Z,97369.41
2023-04-16T05:47:15.788Z,97378.91
2023-04-16T05:51:17.246Z,97388.94
2023-04-16T05:55:19.996Z,97375.50
2023-04-16T05:59:21.440Z,97383.78
2023-04-16T06:03:22.873Z,97391.31
2023-04-16T06:07:24.315Z,97379.25
2023-04-16T06:11:27.061Z,97386.72
2023-04-16T06:15:28.644Z,97388.81
2023-04-16T06:19:30.013Z,97395.25
2023-04-16T06:23:31.430Z,97389.19
2023-04-16T06:27:34.250Z,97388.38
2023-04-16T06:31:35.750Z,97394.66
2023-04-16T06:35:37.195Z,97389.88
2023-04-16T06:39:38.598Z,97397.78
2023-04-16T06:43:41.419Z,97403.19
2023-04-16T06:47:42.911Z,97404.41
2023-04-16T06:51:44.461Z,97408.78
2023-04-16T06:55:45.863Z,97398.91
2023-04-16T06:59:48.608Z,97404.59
2023-04-16T07:03:50.244Z,97414.19
2023-04-16T07:07:51.852Z,97400.50
2023-04-16T07:11:53.528Z,97406.53
2023-04-16T07:15:56.264Z,97407.66
2023-04-16T07:19:57.629Z,97412.94
2023-04-16T07:23:59.006Z,97414.91
2023-04-16T07:28:00.379Z,97423.31
2023-04-16T07:32:03.166Z,97424.66
2023-04-16T07:36:04.842Z,97424.75
2023-04-16T07:40:06.936Z,97430.03
2023-04-16T07:44:08.356Z,97429.50
2023-04-16T07:48:11.089Z,97428.16
2023-04-16T07:52:12.646Z,97436.84
2023-04-16T07:56:14.012Z,97433.75
2023-04-16T08:00:15.550Z,97434.69
2023-04-16T08:04:18.459Z,97438.44
2023-04-16T08:08:19.858Z,97446.81
2023-04-16T08:12:21.330Z,97447.28
2023-04-16T08:16:22.808Z,97451.00
2023-04-16T08:20:25.747Z,97453.97
2023-04-16T08:24:27.116Z,97458.50
2023-04-16T08:28:28.491Z,97463.84
2023-04-16T08:32:29.937Z,97462.06
2023-04-16T08:36:32.716Z,97473.53
2023-04-16T08:40:35.302Z,97479.09
2023-04-16T08:44:37.697Z,97482.66
2023-04-16T08:48:41.137Z,97475.47
2023-04-16T08:52:46.018Z,97479.72
2023-04-16T08:56:48.090Z,97479.03
2023-04-16T09:00:49.564Z,97483.84
2023-04-16T09:04:51.072Z,97498.25
2023-04-16T09:08:54.113Z,97498.31
2023-04-16T09:12:55.836Z,97497.88
2023-04-16T09:16:58.628Z,97504.97
2023-04-16T09:21:00.051Z,97503.13
2023-04-16T09:25:02.867Z,97512.00
2023-04-16T09:29:04.379Z,97509.06
2023-04-16T09:33:12.887Z,97516.06
2023-04-16T09:37:14.997Z,97513.81
2023-04-16T09:41:17.986Z,97512.97
2023-04-16T09:45:19.367Z,97525.56
2023-04-16T09:49:20.735Z,97519.09
2023-04-16T09:53:24.172Z,97527.91
2023-04-16T09:57:26.930Z,97518.53
2023-04-16T10:01:30.525Z,97524.81
2023-04-16T10:05:31.951Z,97521.81
2023-04-16T10:09:37.303Z,97521.03
2023-04-16T10:13:40.037Z,97527.31
2023-04-16T10:17:42.530Z,97533.50
2023-04-16T10:21:44.890Z,97523.72
2023-04-16T10:25:47.659Z,97528.91
2023-04-16T10:29:50.833Z,97525.00
2023-04-16T10:33:52.360Z,97532.81
2023-04-16T10:37:56.305Z,97534.63
2023-04-16T10:42:07.528Z,97538.28
2023-04-16T10:46:20.627Z,97541.25
2023-04-16T10:50:22.043Z,97549.53
2023-04-16T10:54:24.524Z,97545.56
2023-04-16T10:58:29.294Z,97543.91
2023-04-16T11:02:32.258Z,97553.31
2023-04-16T11:06:33.772Z,97556.22
2023-04-16T11:10:38.927Z,97550.25
2023-04-16T11:14:40.438Z,97543.50
2023-04-16T11:18:51.273Z,97550.19
2023-04-16T11:22:54.221Z,97554.91
2023-04-16T11:26:55.583Z,97555.53
2023-04-16T11:30:57.014Z,97551.81
2023-04-16T11:34:59.858Z,97560.25
2023-04-16T11:39:01.784Z,97556.97
2023-04-16T11:43:03.900Z,97561.19
2023-04-16T11:47:05.816Z,97568.72
2023-04-16T11:51:08.573Z,97563.22
2023-04-16T11:55:09.956Z,97572.06
2023-04-16T11:59:12.154Z,97578.94
2023-04-16T12:03:14.130Z,97573.66
2023-04-16T12:07:17.087Z,97575.50
2023-04-16T12:11:18.452Z,97580.47
2023-04-16T12:15:19.856Z,97573.72
2023-04-16T12:19:21.234Z,97573.41
2023-04-16T12:23:24.756Z,97574.34
2023-04-16T12:27:26.180Z,97578.00
2023-04-16T12:31:36.634Z,97572.41
2023-04-16T12:35:38.282Z,97578.47
2023-04-16T12:39:41.017Z,97576.25
2023-04-16T12:43:42.431Z,97569.84
2023-04-16T12:47:43.818Z,97575.53
2023-04-16T12:51:45.308Z,97570.38
2023-04-16T12:55:48.173Z,97572.44
2023-04-16T12:59:49.562Z,97578.28
2023-04-16T13:03:50.999Z,97578.13
2023-04-16T13:07:52.536Z,97565.94
2023-04-16T13:11:55.320Z,97568.00
2023-04-16T13:15:56.707Z,97567.56
2023-04-16T13:19:58.076Z,97571.06
2023-04-16T13:23:59.459Z,97574.25
2023-04-16T13:28:02.227Z,97574.84
2023-04-16T13:32:04.218Z,97572.25
2023-04-16T13:36:06.287Z,97570.28
2023-04-16T13:40:08.474Z,97569.97
2023-04-16T13:44:11.310Z,97571.94
2023-04-16T13:48:12.802Z,97566.66
2023-04-16T13:52:14.200Z,97572.22
2023-04-16T13:56:15.603Z,97568.81
2023-04-16T14:00:18.684Z,97564.72
2023-04-16T14:04:20.906Z,97559.16
2023-04-16T14:08:22.351Z,97556.00
2023-04-16T14:12:23.963Z,97567.34
2023-04-16T14:16:26.781Z,97560.00
2023-04-16T14:20:28.166Z,97561.94
2023-04-16T14:24:29.523Z,97561.78
2023-04-16T14:28:30.926Z,97557.84
2023-04-16T14:32:33.659Z,97555.06
2023-04-16T14:36:35.272Z,97556.03
2023-04-16T14:40:36.784Z,97558.59
2023-04-16T14:44:38.355Z,97555.78
2023-04-16T14:48:41.079Z,97565.75
2023-04-16T14:52:42.498Z,97564.66
2023-04-16T14:56:43.914Z,97567.31
2023-04-16T15:00:45.332Z,97574.22
2023-04-16T15:04:48.108Z,97583.06
2023-04-16T15:08:49.471Z,97578.63
2023-04-16T15:12:50.868Z,97571.75
2023-04-16T15:16:52.327Z,97573.69
2023-04-16T15:20:55.227Z,97576.66
2023-04-16T15:24:56.589Z,97576.53
2023-04-16T15:28:57.986Z,97584.19
2023-04-16T15:32:59.625Z,97588.63
2023-04-16T15:37:02.389Z,97590.41
2023-04-16T15:41:03.784Z,97594.34
2023-04-16T15:45:05.804Z,97596.78
2023-04-16T15:49:07.259Z,97596.28
2023-04-16T15:53:10.017Z,97598.41
2023-04-16T15:57:11.396Z,97595.13
2023-04-16T16:01:12.767Z,97603.91
2023-04-16T16:05:14.398Z,97605.31
2023-04-16T16:09:17.320Z,97603.38
2023-04-16T16:13:18.685Z,97615.44
2023-04-16T16:17:20.089Z,97612.16
2023-04-16T16:21:21.526Z,97609.34
2023-04-16T16:25:24.513Z,97609.63
2023-04-16T16:29:25.869Z,97612.19
2023-04-16T16:33:27.278Z,97613.94
2023-04-16T16:37:28.969Z,97613.28
2023-04-16T16:41:31.743Z,97605.72
2023-04-16T16:45:33.113Z,97611.25
2023-04-16T16:49:34.498Z,97614.38
2023-04-16T16:53:35.865Z,97610.84
2023-04-16T16:57:38.988Z,97616.19
2023-04-16T17:01:42.132Z,97614.19
2023-04-16T17:05:43.510Z,97623.06
2023-04-16T17:09:44.909Z,97625.13
2023-04-16T17:13:47.637Z,97627.28
2023-04-16T17:17:49.049Z,97632.41
2023-04-16T17:21:50.548Z,97640.84
2023-04-16T17:25:51.946Z,97640.63
2023-04-16T17:29:55.107Z,97639.69
2023-04-16T17:33:56.502Z,97643.00
2023-04-16T17:37:57.850Z,97644.22
2023-04-16T17:41:59.227Z,97660.59
2023-04-16T17:46:01.990Z,97660.19
2023-04-16T17:50:03.593Z,97668.13
2023-04-16T17:54:04.998Z,97665.56
2023-04-16T17:58:06.353Z,97666.19
2023-04-16T18:02:09.159Z,97672.31
2023-04-16T18:06:10.649Z,97679.09
2023-04-16T18:10:12.061Z,97684.78
2023-04-16T18:14:13.546Z,97691.53
2023-04-16T18:18:16.385Z,97695.84
2023-04-16T18:22:17.750Z,97700.28
2023-04-16T18:26:22.388Z,97701.56
2023-04-16T18:30:26.670Z,97706.38
2023-04-16T18:34:29.786Z,97711.06
2023-04-16T18:38:31.189Z,97716.03
2023-04-16T18:42:32.559Z,97714.75
2023-04-16T18:46:34.010Z,97718.69
2023-04-16T18:50:36.912Z,97716.03
2023-04-16T18:54:38.273Z,97714.47
2023-04-16T18:58:39.668Z,97724.41
2023-04-16T19:02:41.465Z,97729.88
2023-04-16T19:06:44.229Z,97723.81
2023-04-16T19:10:47.215Z,97733.75
2023-04-16T19:14:48.585Z,97740.63
2023-04-16T19:18:49.957Z,97738.72
2023-04-16T19:22:52.702Z,97743.59
2023-04-16T19:26:54.057Z,97751.56
2023-04-16T19:30:55.430Z,97746.38
2023-04-16T19:34:56.776Z,97750.91
2023-04-16T19:38:59.611Z,97751.97
2023-04-16T19:43:01.039Z,97753.66
2023-04-16T19:47:02.408Z,97757.22
2023-04-16T19:51:03.908Z,97769.97
2023-04-16T19:55:07.451Z,97761.34
2023-04-16T19:59:09.182Z,97762.72
2023-04-16T20:03:10.791Z,97779.31
2023-04-16T20:07:12.236Z,97773.53
2023-04-16T20:11:14.966Z,97775.97
2023-04-16T20:15:16.433Z,97778.13
2023-04-16T20:19:17.914Z,97778.47
2023-04-16T20:23:19.346Z,97782.88
2023-04-16T20:27:22.081Z,97778.00
2023-04-16T20:31:23.599Z,97784.59
2023-04-16T20:35:25.106Z,97772.19
2023-04-16T20:39:26.454Z,97771.88
2023-04-16T20:43:29.182Z,97775.72
2023-04-16T20:47:30.593Z,97771.06
2023-04-16T20:51:32.039Z,97768.34
2023-04-16T20:55:33.396Z,97770.91
2023-04-16T20:59:36.100Z,97772.59
2023-04-16T21:03:37.560Z,97779.22
2023-04-16T21:07:39.255Z,97775.72
2023-04-16T21:11:40.627Z,97778.25
2023-04-16T21:15:44.342Z,97783.75
2023-04-16T21:19:45.732Z,97777.19
2023-04-16T21:23:47.102Z,97779.94
2023-04-16T21:27:48.474Z,97777.78
2023-04-16T21:31:51.299Z,97783.28
2023-04-16T21:35:53.102Z,97779.97
2023-04-16T21:39:57.476Z,97784.41
2023-04-16T21:43:58.821Z,97776.19
2023-04-16T21:48:01.586Z,97772.34
2023-04-16T21:52:02.988Z,97777.56
2023-04-16T21:56:04.545Z,97774.56
2023-04-16T22:00:06.756Z,97776.50
2023-04-16T22:04:09.735Z,97778.97
2023-04-16T22:12:18.725Z,97784.47
2023-04-16T22:16:20.121Z,97791.63
2023-04-16T22:20:22.880Z,97783.13
2023-04-16T22:24:24.266Z,97780.34
2023-04-16T22:28:25.698Z,97780.88
2023-04-16T22:32:27.274Z,97785.78
2023-04-16T22:36:30.073Z,97785.78
2023-04-16T22:40:31.423Z,97780.56
2023-04-16T22:44:32.786Z,97784.97
2023-04-16T22:48:34.357Z,97786.81
2023-04-16T22:52:37.078Z,97792.31
2023-04-16T22:56:38.469Z,97788.63
2023-04-16T23:00:39.856Z,97787.53
2023-04-16T23:04:41.243Z,97785.84
2023-04-16T23:08:43.961Z,97784.75
2023-04-16T23:12:45.342Z,97789.09
2023-04-16T23:16:46.760Z,97782.69
2023-04-16T23:20:50.184Z,97787.63
2023-04-16T23:24:52.960Z,97780.22
2023-04-16T23:28:54.356Z,97778.50
2023-04-16T23:32:55.780Z,97778.47
2023-04-16T23:36:57.215Z,97780.06
2023-04-16T23:40:59.936Z,97781.88
2023-04-16T23:45:01.323Z,97777.47
2023-04-16T23:49:02.811Z,97772.50
2023-04-16T23:53:04.194Z,97765.50
2023-04-16T23:57:06.921Z,97760.56
